sensor_id;sensor_type;location;lat;lon;timestamp;pressure;altitude;pressure_sealevel;temperature;humidity
6194;BME280;3130;41.564;23.280;2023-02-22T00:01:18;98862.53;;;7.44;69.33
6194;BME280;3130;41.564;23.280;2023-02-22T00:03:52;98796.91;;;7.12;68.07
6194;BME280;3130;41.564;23.280;2023-02-22T00:06:21;98840.16;;;7.49;68.43
6194;BME280;3130;41.564;23.280;2023-02-22T00:08:51;98861.78;;;7.76;67.53
6194;BME280;3130;41.564;23.280;2023-02-22T00:11:18;98865.75;;;7.81;67.13
6194;BME280;3130;41.564;23.280;2023-02-22T00:13:46;98866.59;;;7.82;67.30
6194;BME280;3130;41.564;23.280;2023-02-22T00:16:16;98862.44;;;7.79;65.81
6194;BME280;3130;41.564;23.280;2023-02-22T00:18:44;98859.09;;;7.79;66.27
6194;BME280;3130;41.564;23.280;2023-02-22T00:21:13;98863.19;;;7.81;65.83
6194;BME280;3130;41.564;23.280;2023-02-22T00:23:42;98863.06;;;7.84;65.57
6194;BME280;3130;41.564;23.280;2023-02-22T00:26:13;98861.09;;;7.89;64.99
6194;BME280;3130;41.564;23.280;2023-02-22T00:28:44;98852.69;;;7.87;64.80
6194;BME280;3130;41.564;23.280;2023-02-22T00:31:11;98857.56;;;7.92;65.90
6194;BME280;3130;41.564;23.280;2023-02-22T00:33:39;98858.47;;;7.91;65.54
6194;BME280;3130;41.564;23.280;2023-02-22T00:36:08;98861.91;;;7.90;65.55
6194;BME280;3130;41.564;23.280;2023-02-22T00:38:36;98806.31;;;7.62;64.34
6194;BME280;3130;41.564;23.280;2023-02-22T00:41:03;98749.09;;;7.34;63.59
6194;BME280;3130;41.564;23.280;2023-02-22T00:43:33;98852.16;;;7.97;63.71
6194;BME280;3130;41.564;23.280;2023-02-22T00:46:00;98748.94;;;7.37;63.28
6194;BME280;3130;41.564;23.280;2023-02-22T00:48:27;98851.31;;;7.97;63.10
6194;BME280;3130;41.564;23.280;2023-02-22T00:50:54;98847.19;;;7.95;62.74
6194;BME280;3130;41.564;23.280;2023-02-22T00:53:22;98848.31;;;8.06;62.21
6194;BME280;3130;41.564;23.280;2023-02-22T00:55:50;98819.03;;;7.96;62.53
6194;BME280;3130;41.564;23.280;2023-02-22T00:58:17;98850.88;;;8.06;64.14
6194;BME280;3130;41.564;23.280;2023-02-22T01:00:47;98840.34;;;7.95;65.01
6194;BME280;3130;41.564;23.280;2023-02-22T01:03:19;98837.69;;;7.81;65.58
6194;BME280;3130;41.564;23.280;2023-02-22T01:05:46;98781.56;;;7.47;65.17
6194;BME280;3130;41.564;23.280;2023-02-22T01:08:15;98783.47;;;7.44;65.23
6194;BME280;3130;41.564;23.280;2023-02-22T01:10:42;98812.06;;;7.66;65.46
6194;BME280;3130;41.564;23.280;2023-02-22T01:13:10;98833.56;;;7.79;64.88
6194;BME280;3130;41.564;23.280;2023-02-22T01:15:40;98833.63;;;7.77;65.27
6194;BME280;3130;41.564;23.280;2023-02-22T01:18:09;98836.19;;;7.60;64.65
6194;BME280;3130;41.564;23.280;2023-02-22T01:20:37;98820.06;;;7.43;65.51
6194;BME280;3130;41.564;23.280;2023-02-22T01:23:05;98822.91;;;7.37;67.02
6194;BME280;3130;41.564;23.280;2023-02-22T01:25:33;98817.78;;;7.20;67.80
6194;BME280;3130;41.564;23.280;2023-02-22T01:28:01;98823.34;;;7.11;67.66
6194;BME280;3130;41.564;23.280;2023-02-22T01:30:32;98818.94;;;6.96;69.04
6194;BME280;3130;41.564;23.280;2023-02-22T01:33:00;98815.59;;;6.96;69.25
6194;BME280;3130;41.564;23.280;2023-02-22T01:35:31;98816.41;;;6.96;68.35
6194;BME280;3130;41.564;23.280;2023-02-22T01:37:58;98808.06;;;6.93;69.69
6194;BME280;3130;41.564;23.280;2023-02-22T01:40:28;98769.00;;;6.75;68.08
6194;BME280;3130;41.564;23.280;2023-02-22T01:42:57;98796.44;;;6.87;68.82
6194;BME280;3130;41.564;23.280;2023-02-22T01:45:56;98797.88;;;6.93;68.19
6194;BME280;3130;41.564;23.280;2023-02-22T01:48:30;98816.47;;;6.95;68.76
6194;BME280;3130;41.564;23.280;2023-02-22T01:51:03;98800.16;;;6.80;68.25
6194;BME280;3130;41.564;23.280;2023-02-22T01:53:38;98748.03;;;6.52;68.26
6194;BME280;3130;41.564;23.280;2023-02-22T01:56:06;98807.19;;;6.94;68.49
6194;BME280;3130;41.564;23.280;2023-02-22T01:58:35;98800.28;;;6.96;68.48
6194;BME280;3130;41.564;23.280;2023-02-22T02:01:05;98787.78;;;6.91;67.89
6194;BME280;3130;41.564;23.280;2023-02-22T02:03:34;98799.69;;;7.07;67.36
6194;BME280;3130;41.564;23.280;2023-02-22T02:06:06;98809.25;;;7.21;67.41
6194;BME280;3130;41.564;23.280;2023-02-22T02:08:41;98787.34;;;7.17;66.34
6194;BME280;3130;41.564;23.280;2023-02-22T02:11:15;98690.59;;;6.63;65.14
6194;BME280;3130;41.564;23.280;2023-02-22T02:13:43;98807.31;;;7.43;64.70
6194;BME280;3130;41.564;23.280;2023-02-22T02:16:10;98802.22;;;7.43;65.25
6194;BME280;3130;41.564;23.280;2023-02-22T02:18:37;98801.47;;;7.41;64.73
6194;BME280;3130;41.564;23.280;2023-02-22T02:24:41;98794.75;;;7.38;65.36
6194;BME280;3130;41.564;23.280;2023-02-22T02:27:17;98800.03;;;7.35;65.27
6194;BME280;3130;41.564;23.280;2023-02-22T02:32:56;98804.78;;;7.07;65.86
6194;BME280;3130;41.564;23.280;2023-02-22T02:35:33;98763.47;;;6.84;65.82
6194;BME280;3130;41.564;23.280;2023-02-22T02:38:08;98798.94;;;7.05;65.63
6194;BME280;3130;41.564;23.280;2023-02-22T02:40:40;98798.66;;;7.11;66.57
6194;BME280;3130;41.564;23.280;2023-02-22T02:43:15;98792.41;;;7.00;67.84
6194;BME280;3130;41.564;23.280;2023-02-22T02:45:46;98782.97;;;7.02;67.71
6194;BME280;3130;41.564;23.280;2023-02-22T02:48:18;98772.25;;;6.96;66.95
6194;BME280;3130;41.564;23.280;2023-02-22T02:50:48;98788.91;;;7.02;67.45
6194;BME280;3130;41.564;23.280;2023-02-22T02:53:20;98796.56;;;7.02;67.74
6194;BME280;3130;41.564;23.280;2023-02-22T02:55:48;98808.84;;;7.11;66.62
6194;BME280;3130;41.564;23.280;2023-02-22T02:58:19;98812.00;;;6.99;66.37
6194;BME280;3130;41.564;23.280;2023-02-22T03:00:48;98798.91;;;6.89;66.85
6194;BME280;3130;41.564;23.280;2023-02-22T03:03:44;98779.25;;;6.74;67.35
6194;BME280;3130;41.564;23.280;2023-02-22T03:06:28;98817.81;;;6.85;68.20
6194;BME280;3130;41.564;23.280;2023-02-22T03:09:06;98818.91;;;6.79;68.72
6194;BME280;3130;41.564;23.280;2023-02-22T03:11:43;98755.44;;;6.39;69.36
6194;BME280;3130;41.564;23.280;2023-02-22T03:14:20;98825.25;;;6.71;68.46
6194;BME280;3130;41.564;23.280;2023-02-22T03:16:51;98812.94;;;6.62;68.50
6194;BME280;3130;41.564;23.280;2023-02-22T03:19:27;98829.44;;;6.72;68.16
6194;BME280;3130;41.564;23.280;2023-02-22T03:22:02;98831.88;;;6.75;67.96
6194;BME280;3130;41.564;23.280;2023-02-22T03:24:37;98831.81;;;6.76;68.65
6194;BME280;3130;41.564;23.280;2023-02-22T03:27:10;98709.50;;;6.05;69.00
6194;BME280;3130;41.564;23.280;2023-02-22T03:29:42;98830.28;;;6.72;69.00
6194;BME280;3130;41.564;23.280;2023-02-22T03:32:14;98827.88;;;6.69;67.63
6194;BME280;3130;41.564;23.280;2023-02-22T03:34:48;98749.03;;;6.12;68.45
6194;BME280;3130;41.564;23.280;2023-02-22T03:37:20;98784.94;;;6.25;69.38
6194;BME280;3130;41.564;23.280;2023-02-22T03:39:52;98832.34;;;6.64;69.26
6194;BME280;3130;41.564;23.280;2023-02-22T03:42:21;98751.09;;;6.23;69.29
6194;BME280;3130;41.564;23.280;2023-02-22T03:44:51;98835.56;;;6.68;69.60
6194;BME280;3130;41.564;23.280;2023-02-22T03:47:22;98832.69;;;6.57;70.13
6194;BME280;3130;41.564;23.280;2023-02-22T03:49:57;98834.06;;;6.45;70.56
6194;BME280;3130;41.564;23.280;2023-02-22T03:52:31;98825.00;;;6.21;70.63
6194;BME280;3130;41.564;23.280;2023-02-22T03:54:59;98840.53;;;6.34;71.37
6194;BME280;3130;41.564;23.280;2023-02-22T03:57:30;98837.03;;;6.36;70.31
6194;BME280;3130;41.564;23.280;2023-02-22T03:59:58;98841.50;;;6.31;70.48
6194;BME280;3130;41.564;23.280;2023-02-22T04:02:25;98843.72;;;6.39;70.56
6194;BME280;3130;41.564;23.280;2023-02-22T04:04:52;98839.72;;;6.33;70.23
6194;BME280;3130;41.564;23.280;2023-02-22T04:07:21;98838.59;;;6.20;71.22
6194;BME280;3130;41.564;23.280;2023-02-22T04:09:48;98826.28;;;6.11;70.32
6194;BME280;3130;41.564;23.280;2023-02-22T04:12:15;98844.31;;;6.25;71.20
6194;BME280;3130;41.564;23.280;2023-02-22T04:14:42;98841.72;;;6.27;70.46
6194;BME280;3130;41.564;23.280;2023-02-22T04:17:09;98784.09;;;5.88;70.89
6194;BME280;3130;41.564;23.280;2023-02-22T04:19:36;98848.47;;;6.28;70.83
6194;BME280;3130;41.564;23.280;2023-02-22T04:22:03;98850.13;;;6.29;71.41
6194;BME280;3130;41.564;23.280;2023-02-22T04:24:31;98837.44;;;6.27;71.50
6194;BME280;3130;41.564;23.280;2023-02-22T04:26:58;98741.44;;;5.73;71.27
6194;BME280;3130;41.564;23.280;2023-02-22T04:29:25;98771.59;;;6.01;70.90
6194;BME280;3130;41.564;23.280;2023-02-22T04:31:52;98843.16;;;6.51;69.86
6194;BME280;3130;41.564;23.280;2023-02-22T04:34:19;98860.03;;;6.53;70.12
6194;BME280;3130;41.564;23.280;2023-02-22T04:36:46;98859.34;;;6.50;71.08
6194;BME280;3130;41.564;23.280;2023-02-22T04:39:13;98838.06;;;6.14;70.95
6194;BME280;3130;41.564;23.280;2023-02-22T04:41:42;98858.84;;;6.23;71.21
6194;BME280;3130;41.564;23.280;2023-02-22T04:44:09;98761.13;;;5.69;71.16
6194;BME280;3130;41.564;23.280;2023-02-22T04:46:36;98772.91;;;5.52;72.40
6194;BME280;3130;41.564;23.280;2023-02-22T04:49:03;98837.22;;;5.74;72.74
6194;BME280;3130;41.564;23.280;2023-02-22T04:51:30;98768.63;;;5.32;73.47
6194;BME280;3130;41.564;23.280;2023-02-22T04:53:57;98847.28;;;5.97;72.39
6194;BME280;3130;41.564;23.280;2023-02-22T04:56:24;98868.59;;;6.14;72.19
6194;BME280;3130;41.564;23.280;2023-02-22T04:58:53;98869.19;;;6.00;72.95
6194;BME280;3130;41.564;23.280;2023-02-22T05:01:20;98827.56;;;5.62;72.86
6194;BME280;3130;41.564;23.280;2023-02-22T05:03:48;98877.78;;;5.77;73.09
6194;BME280;3130;41.564;23.280;2023-02-22T05:06:15;98788.59;;;5.21;74.14
6194;BME280;3130;41.564;23.280;2023-02-22T05:08:42;98810.25;;;5.30;73.90
6194;BME280;3130;41.564;23.280;2023-02-22T05:11:09;98882.44;;;5.67;73.91
6194;BME280;3130;41.564;23.280;2023-02-22T05:13:36;98874.31;;;5.59;74.56
6194;BME280;3130;41.564;23.280;2023-02-22T05:16:05;98882.38;;;5.49;75.24
6194;BME280;3130;41.564;23.280;2023-02-22T05:18:33;98867.31;;;5.44;75.24
6194;BME280;3130;41.564;23.280;2023-02-22T05:21:00;98742.22;;;4.75;74.70
6194;BME280;3130;41.564;23.280;2023-02-22T05:23:27;98883.28;;;5.68;75.08
6194;BME280;3130;41.564;23.280;2023-02-22T05:25:54;98863.38;;;5.57;74.03
6194;BME280;3130;41.564;23.280;2023-02-22T05:28:21;98887.28;;;5.73;74.73
6194;BME280;3130;41.564;23.280;2023-02-22T05:30:48;98894.84;;;5.75;74.22
6194;BME280;3130;41.564;23.280;2023-02-22T05:33:16;98895.84;;;5.92;74.20
6194;BME280;3130;41.564;23.280;2023-02-22T05:35:44;98857.28;;;5.81;73.39
6194;BME280;3130;41.564;23.280;2023-02-22T05:38:12;98880.72;;;6.07;73.42
6194;BME280;3130;41.564;23.280;2023-02-22T05:40:40;98901.59;;;6.35;72.48
6194;BME280;3130;41.564;23.280;2023-02-22T05:43:08;98908.75;;;6.46;72.14
6194;BME280;3130;41.564;23.280;2023-02-22T05:45:35;98908.44;;;6.53;71.73
6194;BME280;3130;41.564;23.280;2023-02-22T05:48:02;98911.38;;;6.44;70.86
6194;BME280;3130;41.564;23.280;2023-02-22T05:50:31;98898.28;;;6.33;70.93
6194;BME280;3130;41.564;23.280;2023-02-22T05:52:59;98914.81;;;6.43;70.94
6194;BME280;3130;41.564;23.280;2023-02-22T05:55:26;98919.50;;;6.52;71.28
6194;BME280;3130;41.564;23.280;2023-02-22T05:57:53;98852.94;;;6.03;71.11
6194;BME280;3130;41.564;23.280;2023-02-22T06:00:23;98922.44;;;6.43;71.48
6194;BME280;3130;41.564;23.280;2023-02-22T06:02:54;98895.72;;;6.33;71.10
6194;BME280;3130;41.564;23.280;2023-02-22T06:05:22;98895.28;;;6.44;71.69
6194;BME280;3130;41.564;23.280;2023-02-22T06:07:50;98917.94;;;6.68;71.51
6194;BME280;3130;41.564;23.280;2023-02-22T06:10:18;98929.56;;;6.74;71.06
6194;BME280;3130;41.564;23.280;2023-02-22T06:12:45;98926.09;;;6.76;71.60
6194;BME280;3130;41.564;23.280;2023-02-22T06:15:13;98932.53;;;6.83;70.71
6194;BME280;3130;41.564;23.280;2023-02-22T06:17:40;98922.44;;;6.82;69.76
6194;BME280;3130;41.564;23.280;2023-02-22T06:20:09;98935.91;;;7.02;69.57
6194;BME280;3130;41.564;23.280;2023-02-22T06:22:36;98931.16;;;6.95;69.78
6194;BME280;3130;41.564;23.280;2023-02-22T06:25:08;98929.66;;;6.91;69.24
6194;BME280;3130;41.564;23.280;2023-02-22T06:27:35;98934.75;;;6.91;69.15
6194;BME280;3130;41.564;23.280;2023-02-22T06:30:02;98925.88;;;6.81;68.90
6194;BME280;3130;41.564;23.280;2023-02-22T06:32:30;98943.16;;;6.93;69.89
6194;BME280;3130;41.564;23.280;2023-02-22T06:34:57;98934.63;;;6.94;70.06
6194;BME280;3130;41.564;23.280;2023-02-22T06:37:24;98937.56;;;7.03;70.41
6194;BME280;3130;41.564;23.280;2023-02-22T06:39:51;98945.09;;;7.06;70.23
6194;BME280;3130;41.564;23.280;2023-02-22T06:42:20;98919.91;;;7.17;70.79
6194;BME280;3130;41.564;23.280;2023-02-22T06:44:48;98936.03;;;7.36;70.45
6194;BME280;3130;41.564;23.280;2023-02-22T06:47:15;98899.66;;;7.32;69.61
6194;BME280;3130;41.564;23.280;2023-02-22T06:49:42;98930.59;;;7.77;68.93
6194;BME280;3130;41.564;23.280;2023-02-22T06:52:09;98791.16;;;7.08;67.17
6194;BME280;3130;41.564;23.280;2023-02-22T06:54:38;98935.56;;;8.14;66.40
6194;BME280;3130;41.564;23.280;2023-02-22T06:57:05;98938.22;;;8.29;66.03
6194;BME280;3130;41.564;23.280;2023-02-22T06:59:34;98904.00;;;8.32;65.53
6194;BME280;3130;41.564;23.280;2023-02-22T07:02:01;98937.50;;;8.60;64.99
6194;BME280;3130;41.564;23.280;2023-02-22T07:04:29;98930.16;;;8.69;64.35
6194;BME280;3130;41.564;23.280;2023-02-22T07:06:56;98931.47;;;8.76;63.61
6194;BME280;3130;41.564;23.280;2023-02-22T07:09:23;98930.34;;;8.82;63.48
6194;BME280;3130;41.564;23.280;2023-02-22T07:11:50;98930.44;;;8.96;63.19
6194;BME280;3130;41.564;23.280;2023-02-22T07:14:17;98848.75;;;8.46;63.43
6194;BME280;3130;41.564;23.280;2023-02-22T07:16:49;98903.22;;;8.95;62.74
6194;BME280;3130;41.564;23.280;2023-02-22T07:19:19;98827.75;;;8.72;62.51
6194;BME280;3130;41.564;23.280;2023-02-22T07:21:46;98915.31;;;9.53;61.90
6194;BME280;3130;41.564;23.280;2023-02-22T07:24:13;98897.66;;;9.78;61.07
6194;BME280;3130;41.564;23.280;2023-02-22T07:26:41;98909.50;;;10.37;58.90
6194;BME280;3130;41.564;23.280;2023-02-22T07:29:08;98912.41;;;11.27;56.62
6194;BME280;3130;41.564;23.280;2023-02-22T07:31:36;98916.81;;;12.29;51.30
6194;BME280;3130;41.564;23.280;2023-02-22T07:34:05;98915.78;;;13.30;47.40
6194;BME280;3130;41.564;23.280;2023-02-22T07:36:32;98857.25;;;14.01;44.67
6194;BME280;3130;41.564;23.280;2023-02-22T07:39:00;98913.84;;;15.35;42.25
6194;BME280;3130;41.564;23.280;2023-02-22T07:41:27;98902.06;;;16.25;39.31
6194;BME280;3130;41.564;23.280;2023-02-22T07:43:54;98825.94;;;16.48;37.34
6194;BME280;3130;41.564;23.280;2023-02-22T07:46:24;98914.19;;;17.72;35.70
6194;BME280;3130;41.564;23.280;2023-02-22T07:48:51;98908.03;;;18.02;34.64
6194;BME280;3130;41.564;23.280;2023-02-22T07:51:20;98876.03;;;18.20;33.90
6194;BME280;3130;41.564;23.280;2023-02-22T07:53:48;98909.13;;;18.73;33.33
6194;BME280;3130;41.564;23.280;2023-02-22T07:56:15;98823.34;;;18.56;32.70
6194;BME280;3130;41.564;23.280;2023-02-22T07:58:43;98886.47;;;19.46;31.52
6194;BME280;3130;41.564;23.280;2023-02-22T08:01:10;98906.09;;;19.93;31.06
6194;BME280;3130;41.564;23.280;2023-02-22T08:03:37;98901.31;;;20.24;29.98
6194;BME280;3130;41.564;23.280;2023-02-22T08:06:06;98902.38;;;20.64;30.10
6194;BME280;3130;41.564;23.280;2023-02-22T08:08:34;98907.31;;;20.75;29.88
6194;BME280;3130;41.564;23.280;2023-02-22T08:11:02;98907.78;;;20.96;29.76
6194;BME280;3130;41.564;23.280;2023-02-22T08:13:30;98885.81;;;21.06;29.79
6194;BME280;3130;41.564;23.280;2023-02-22T08:15:57;98900.00;;;21.04;29.51
6194;BME280;3130;41.564;23.280;2023-02-22T08:18:24;98893.25;;;21.34;29.67
6194;BME280;3130;41.564;23.280;2023-02-22T08:20:53;98900.53;;;21.96;28.90
6194;BME280;3130;41.564;23.280;2023-02-22T08:23:22;98899.38;;;22.31;27.49
6194;BME280;3130;41.564;23.280;2023-02-22T08:25:51;98892.03;;;22.34;27.66
6194;BME280;3130;41.564;23.280;2023-02-22T08:28:20;98897.41;;;22.56;27.42
6194;BME280;3130;41.564;23.280;2023-02-22T08:30:48;98878.34;;;22.86;26.98
6194;BME280;3130;41.564;23.280;2023-02-22T08:33:16;98886.84;;;22.88;27.04
6194;BME280;3130;41.564;23.280;2023-02-22T08:35:45;98883.66;;;22.70;27.51
6194;BME280;3130;41.564;23.280;2023-02-22T08:38:20;98886.00;;;21.78;28.43
6194;BME280;3130;41.564;23.280;2023-02-22T08:40:48;98884.78;;;21.48;28.54
6194;BME280;3130;41.564;23.280;2023-02-22T08:43:17;98883.56;;;21.11;28.62
6194;BME280;3130;41.564;23.280;2023-02-22T08:45:45;98879.16;;;20.78;29.32
6194;BME280;3130;41.564;23.280;2023-02-22T08:48:13;98860.50;;;20.57;29.67
6194;BME280;3130;41.564;23.280;2023-02-22T08:50:40;98876.41;;;20.46;30.37
6194;BME280;3130;41.564;23.280;2023-02-22T08:53:09;98867.84;;;20.36;30.22
6194;BME280;3130;41.564;23.280;2023-02-22T08:55:39;98798.72;;;19.14;32.15
6194;BME280;3130;41.564;23.280;2023-02-22T08:58:07;98750.19;;;18.33;33.14
6194;BME280;3130;41.564;23.280;2023-02-22T09:00:37;98830.13;;;18.66;33.73
6194;BME280;3130;41.564;23.280;2023-02-22T09:03:06;98858.59;;;18.58;33.87
6194;BME280;3130;41.564;23.280;2023-02-22T09:05:34;98774.13;;;17.72;34.25
6194;BME280;3130;41.564;23.280;2023-02-22T09:08:02;98851.91;;;18.01;35.02
6194;BME280;3130;41.564;23.280;2023-02-22T09:10:32;98818.34;;;17.61;35.37
6194;BME280;3130;41.564;23.280;2023-02-22T09:12:59;98844.72;;;17.57;35.63
6194;BME280;3130;41.564;23.280;2023-02-22T09:15:29;98845.34;;;17.21;35.95
6194;BME280;3130;41.564;23.280;2023-02-22T09:17:58;98825.13;;;17.15;36.09
6194;BME280;3130;41.564;23.280;2023-02-22T09:20:26;98841.56;;;17.44;36.07
6194;BME280;3130;41.564;23.280;2023-02-22T09:22:53;98798.94;;;17.18;35.79
6194;BME280;3130;41.564;23.280;2023-02-22T09:25:21;98797.03;;;17.11;36.09
6194;BME280;3130;41.564;23.280;2023-02-22T09:27:50;98760.31;;;16.96;36.04
6194;BME280;3130;41.564;23.280;2023-02-22T09:30:22;98791.75;;;17.31;35.69
6194;BME280;3130;41.564;23.280;2023-02-22T09:32:51;98790.78;;;17.04;36.07
6194;BME280;3130;41.564;23.280;2023-02-22T09:35:21;98824.50;;;17.32;36.13
6194;BME280;3130;41.564;23.280;2023-02-22T09:37:52;98714.22;;;16.62;36.02
6194;BME280;3130;41.564;23.280;2023-02-22T09:40:20;98821.09;;;17.31;36.13
6194;BME280;3130;41.564;23.280;2023-02-22T09:43:09;98816.56;;;17.15;35.77
6194;BME280;3130;41.564;23.280;2023-02-22T09:45:46;98801.00;;;17.05;35.76
6194;BME280;3130;41.564;23.280;2023-02-22T09:48:18;98726.19;;;16.53;35.71
6194;BME280;3130;41.564;23.280;2023-02-22T09:50:48;98810.41;;;17.16;35.83
6194;BME280;3130;41.564;23.280;2023-02-22T09:53:22;98805.34;;;17.14;35.63
6194;BME280;3130;41.564;23.280;2023-02-22T09:55:57;98740.56;;;16.76;35.30
6194;BME280;3130;41.564;23.280;2023-02-22T09:58:27;98748.47;;;16.84;35.05
6194;BME280;3130;41.564;23.280;2023-02-22T10:01:08;98697.47;;;16.56;35.31
6194;BME280;3130;41.564;23.280;2023-02-22T10:03:48;98799.13;;;17.35;35.64
6194;BME280;3130;41.564;23.280;2023-02-22T10:06:20;98713.03;;;16.94;35.18
6194;BME280;3130;41.564;23.280;2023-02-22T10:08:51;98776.75;;;17.44;34.63
6194;BME280;3130;41.564;23.280;2023-02-22T10:11:34;98782.31;;;17.58;34.68
6194;BME280;3130;41.564;23.280;2023-02-22T10:14:21;98771.81;;;17.69;34.59
6194;BME280;3130;41.564;23.280;2023-02-22T10:16:57;98738.56;;;17.46;34.86
6194;BME280;3130;41.564;23.280;2023-02-22T10:19:36;98769.22;;;17.60;34.63
6194;BME280;3130;41.564;23.280;2023-02-22T10:22:34;98759.66;;;17.60;34.42
6194;BME280;3130;41.564;23.280;2023-02-22T10:25:09;98753.94;;;17.57;34.83
6194;BME280;3130;41.564;23.280;2023-02-22T10:27:39;98760.25;;;17.45;34.79
6194;BME280;3130;41.564;23.280;2023-02-22T10:30:16;98745.09;;;17.40;35.03
6194;BME280;3130;41.564;23.280;2023-02-22T10:32:49;98725.19;;;17.41;35.12
6194;BME280;3130;41.564;23.280;2023-02-22T10:35:21;98737.41;;;17.67;34.75
6194;BME280;3130;41.564;23.280;2023-02-22T10:37:53;98723.06;;;17.73;34.87
6194;BME280;3130;41.564;23.280;2023-02-22T10:40:23;98712.97;;;17.70;34.31
6194;BME280;3130;41.564;23.280;2023-02-22T10:43:00;98724.13;;;17.89;34.40
6194;BME280;3130;41.564;23.280;2023-02-22T10:45:29;98726.00;;;17.97;33.72
6194;BME280;3130;41.564;23.280;2023-02-22T10:47:59;98699.38;;;17.95;33.50
6194;BME280;3130;41.564;23.280;2023-02-22T10:50:29;98713.06;;;18.23;33.29
6194;BME280;3130;41.564;23.280;2023-02-22T10:53:00;98711.97;;;18.26;32.32
6194;BME280;3130;41.564;23.280;2023-02-22T10:55:27;98705.75;;;18.36;32.06
6194;BME280;3130;41.564;23.280;2023-02-22T10:58:01;98699.28;;;18.23;32.47
6194;BME280;3130;41.564;23.280;2023-02-22T11:00:31;98625.47;;;17.99;32.29
6194;BME280;3130;41.564;23.280;2023-02-22T11:03:04;98703.19;;;18.71;32.04
6194;BME280;3130;41.564;23.280;2023-02-22T11:05:35;98677.91;;;18.56;31.60
6194;BME280;3130;41.564;23.280;2023-02-22T11:08:34;98675.63;;;18.70;31.97
6194;BME280;3130;41.564;23.280;2023-02-22T11:11:02;98654.50;;;18.38;31.81
6194;BME280;3130;41.564;23.280;2023-02-22T11:13:52;98678.78;;;18.64;31.68
6194;BME280;3130;41.564;23.280;2023-02-22T11:16:27;98670.63;;;18.77;31.24
6194;BME280;3130;41.564;23.280;2023-02-22T11:19:01;98554.75;;;18.14;31.21
6194;BME280;3130;41.564;23.280;2023-02-22T11:21:30;98675.06;;;19.02;30.70
6194;BME280;3130;41.564;23.280;2023-02-22T11:24:04;98671.00;;;19.17;30.73
6194;BME280;3130;41.564;23.280;2023-02-22T11:26:39;98662.66;;;19.30;30.88
6194;BME280;3130;41.564;23.280;2023-02-22T11:29:17;98666.25;;;19.55;30.32
6194;BME280;3130;41.564;23.280;2023-02-22T11:31:46;98651.22;;;19.49;30.42
6194;BME280;3130;41.564;23.280;2023-02-22T11:34:29;98655.78;;;19.47;30.34
6194;BME280;3130;41.564;23.280;2023-02-22T11:37:15;98642.53;;;19.58;30.25
6194;BME280;3130;41.564;23.280;2023-02-22T11:39:44;98605.28;;;19.57;29.68
6194;BME280;3130;41.564;23.280;2023-02-22T11:42:21;98638.09;;;19.84;29.76
6194;BME280;3130;41.564;23.280;2023-02-22T11:44:52;98561.91;;;19.32;29.86
6194;BME280;3130;41.564;23.280;2023-02-22T11:47:34;98606.41;;;19.55;29.67
6194;BME280;3130;41.564;23.280;2023-02-22T11:50:01;98622.09;;;19.71;30.12
6194;BME280;3130;41.564;23.280;2023-02-22T11:52:41;98615.19;;;19.95;29.87
6194;BME280;3130;41.564;23.280;2023-02-22T11:55:17;98622.28;;;20.11;29.78
6194;BME280;3130;41.564;23.280;2023-02-22T11:57:54;98620.53;;;20.19;29.29
6194;BME280;3130;41.564;23.280;2023-02-22T12:00:37;98580.19;;;20.31;29.44
6194;BME280;3130;41.564;23.280;2023-02-22T12:03:23;98605.47;;;20.62;28.86
6194;BME280;3130;41.564;23.280;2023-02-22T12:06:10;98594.06;;;20.63;28.85
6194;BME280;3130;41.564;23.280;2023-02-22T12:08:53;98578.88;;;20.35;29.42
6194;BME280;3130;41.564;23.280;2023-02-22T12:11:31;98501.81;;;19.93;28.89
6194;BME280;3130;41.564;23.280;2023-02-22T12:14:11;98525.44;;;20.07;28.76
6194;BME280;3130;41.564;23.280;2023-02-22T12:19:38;98535.09;;;20.54;28.43
6194;BME280;3130;41.564;23.280;2023-02-22T12:22:12;98507.72;;;20.50;27.99
6194;BME280;3130;41.564;23.280;2023-02-22T12:24:45;98584.91;;;21.23;28.13
6194;BME280;3130;41.564;23.280;2023-02-22T12:27:19;98583.28;;;21.30;27.75
6194;BME280;3130;41.564;23.280;2023-02-22T12:29:50;98576.91;;;21.33;27.84
6194;BME280;3130;41.564;23.280;2023-02-22T12:32:23;98571.63;;;21.48;27.52
6194;BME280;3130;41.564;23.280;2023-02-22T12:34:56;98556.94;;;21.55;27.16
6194;BME280;3130;41.564;23.280;2023-02-22T12:37:26;98543.75;;;21.49;26.86
6194;BME280;3130;41.564;23.280;2023-02-22T12:40:04;98549.28;;;21.54;27.25
6194;BME280;3130;41.564;23.280;2023-02-22T12:42:44;98518.59;;;21.56;26.94
6194;BME280;3130;41.564;23.280;2023-02-22T12:45:24;98542.34;;;21.77;26.69
6194;BME280;3130;41.564;23.280;2023-02-22T12:47:59;98475.28;;;21.39;26.39
6194;BME280;3130;41.564;23.280;2023-02-22T12:50:30;98553.91;;;22.13;26.59
6194;BME280;3130;41.564;23.280;2023-02-22T12:53:03;98535.44;;;22.14;26.30
6194;BME280;3130;41.564;23.280;2023-02-22T12:55:37;98483.41;;;21.82;26.02
6194;BME280;3130;41.564;23.280;2023-02-22T12:58:19;98537.06;;;22.15;26.36
6194;BME280;3130;41.564;23.280;2023-02-22T13:00:53;98545.97;;;22.29;26.28
6194;BME280;3130;41.564;23.280;2023-02-22T13:03:31;98507.31;;;22.24;25.70
6194;BME280;3130;41.564;23.280;2023-02-22T13:06:22;98471.38;;;22.04;25.27
6194;BME280;3130;41.564;23.280;2023-02-22T13:09:04;98490.00;;;22.23;25.15
6194;BME280;3130;41.564;23.280;2023-02-22T13:11:39;98549.75;;;22.71;24.89
6194;BME280;3130;41.564;23.280;2023-02-22T13:14:23;98544.06;;;22.67;24.89
6194;BME280;3130;41.564;23.280;2023-02-22T13:16:59;98549.50;;;22.66;24.20
6194;BME280;3130;41.564;23.280;2023-02-22T13:19:38;98486.53;;;22.31;24.39
6194;BME280;3130;41.564;23.280;2023-02-22T13:22:14;98545.72;;;22.68;24.40
6194;BME280;3130;41.564;23.280;2023-02-22T13:24:52;98540.53;;;22.83;24.10
6194;BME280;3130;41.564;23.280;2023-02-22T13:27:25;98538.91;;;22.96;24.14
6194;BME280;3130;41.564;23.280;2023-02-22T13:29:57;98536.81;;;22.92;24.33
6194;BME280;3130;41.564;23.280;2023-02-22T13:32:40;98515.53;;;22.80;24.50
6194;BME280;3130;41.564;23.280;2023-02-22T13:35:45;98526.47;;;22.98;24.49
6194;BME280;3130;41.564;23.280;2023-02-22T13:38:41;98465.75;;;22.74;24.38
6194;BME280;3130;41.564;23.280;2023-02-22T13:41:30;98525.25;;;23.23;24.15
6194;BME280;3130;41.564;23.280;2023-02-22T13:47:14;98533.03;;;22.94;24.67
6194;BME280;3130;41.564;23.280;2023-02-22T13:52:54;98523.94;;;23.05;24.62
6194;BME280;3130;41.564;23.280;2023-02-22T13:55:25;98529.94;;;23.13;24.46